createdAt,value
2023-03-19T00:00:37.370Z,7.49
2023-03-19T00:01:31.302Z,7.47
2023-03-19T00:02:31.356Z,7.42
2023-03-19T00:03:31.312Z,7.44
2023-03-19T00:04:31.273Z,7.47
2023-03-19T00:05:31.463Z,7.44
2023-03-19T00:06:31.250Z,7.44
2023-03-19T00:07:31.262Z,7.41
2023-03-19T00:08:31.228Z,7.41
2023-03-19T00:09:31.225Z,7.40
2023-03-19T00:10:31.215Z,7.47
2023-03-19T00:11:31.210Z,7.47
2023-03-19T00:12:31.218Z,7.49
2023-03-19T00:13:31.189Z,7.47
2023-03-19T00:14:31.189Z,7.41
2023-03-19T00:15:31.179Z,7.47
2023-03-19T00:16:31.166Z,7.45
2023-03-19T00:17:31.161Z,7.49
2023-03-19T00:18:31.185Z,7.47
2023-03-19T00:19:31.129Z,7.47
2023-03-19T00:20:31.112Z,7.40
2023-03-19T00:21:31.111Z,7.41
2023-03-19T00:22:31.107Z,7.38
2023-03-19T00:23:31.090Z,7.34
2023-03-19T00:24:31.066Z,7.32
2023-03-19T00:25:31.114Z,7.32
2023-03-19T00:26:31.055Z,7.32
2023-03-19T00:27:31.076Z,7.31
2023-03-19T00:28:31.042Z,7.34
2023-03-19T00:29:31.025Z,7.38
2023-03-19T00:30:31.118Z,7.38
2023-03-19T00:31:31.013Z,7.38
2023-03-19T00:32:31.033Z,7.35
2023-03-19T00:33:30.988Z,7.34
2023-03-19T00:34:30.988Z,7.37
2023-03-19T00:35:30.989Z,7.37
2023-03-19T00:36:30.961Z,7.40
2023-03-19T00:37:30.943Z,7.44
2023-03-19T00:38:30.931Z,7.42
2023-03-19T00:39:30.952Z,7.45
2023-03-19T00:40:30.913Z,7.45
2023-03-19T00:41:30.902Z,7.49
2023-03-19T00:42:30.886Z,7.50
2023-03-19T00:43:30.882Z,7.49
2023-03-19T00:44:30.877Z,7.49
2023-03-19T00:45:31.261Z,7.49
2023-03-19T00:46:30.869Z,7.50
2023-03-19T00:47:30.860Z,7.55
2023-03-19T00:48:30.822Z,7.58
2023-03-19T00:49:30.819Z,7.60
2023-03-19T00:50:30.807Z,7.69
2023-03-19T00:51:30.801Z,7.75
2023-03-19T00:52:30.802Z,7.75
2023-03-19T00:53:30.778Z,7.79
2023-03-19T00:54:30.769Z,7.79
2023-03-19T00:55:30.767Z,7.78
2023-03-19T00:56:30.745Z,7.74
2023-03-19T00:57:30.761Z,7.74
2023-03-19T00:58:30.718Z,7.74
2023-03-19T00:59:30.711Z,7.74
2023-03-19T01:00:30.706Z,7.66
2023-03-19T01:01:30.714Z,7.60
2023-03-19T01:02:30.709Z,7.55
2023-03-19T01:03:30.668Z,7.42
2023-03-19T01:04:30.804Z,7.35
2023-03-19T01:05:30.759Z,7.24
2023-03-19T01:06:30.632Z,7.19
2023-03-19T01:07:30.628Z,7.15
2023-03-19T01:08:30.616Z,7.04
2023-03-19T01:09:30.628Z,6.94
2023-03-19T01:10:30.597Z,6.86
2023-03-19T01:11:30.584Z,6.80
2023-03-19T01:12:30.564Z,6.73
2023-03-19T01:13:30.568Z,6.68
2023-03-19T01:14:30.587Z,6.63
2023-03-19T01:15:30.536Z,6.61
2023-03-19T01:16:30.528Z,6.63
2023-03-19T01:17:30.556Z,6.68
2023-03-19T01:18:30.511Z,6.76
2023-03-19T01:19:30.497Z,6.80
2023-03-19T01:20:30.496Z,6.80
2023-03-19T01:21:30.483Z,6.89
2023-03-19T01:22:30.485Z,6.94
2023-03-19T01:23:30.458Z,6.97
2023-03-19T01:24:30.461Z,7.01
2023-03-19T01:25:30.441Z,7.04
2023-03-19T01:26:30.433Z,7.08
2023-03-19T01:27:30.420Z,7.15
2023-03-19T01:28:30.413Z,7.08
2023-03-19T01:29:30.427Z,7.05
2023-03-19T01:30:30.383Z,6.99
2023-03-19T01:31:30.410Z,6.91
2023-03-19T01:32:30.429Z,6.81
2023-03-19T01:33:30.357Z,6.77
2023-03-19T01:34:30.355Z,6.71
2023-03-19T01:35:30.444Z,6.66
2023-03-19T01:36:30.325Z,6.65
2023-03-19T01:37:30.328Z,6.71
2023-03-19T01:38:30.327Z,6.81
2023-03-19T01:39:30.298Z,6.94
2023-03-19T01:40:30.280Z,7.01
2023-03-19T01:41:30.285Z,7.07
2023-03-19T01:42:30.327Z,7.05
2023-03-19T01:43:30.255Z,7.01
2023-03-19T01:44:30.241Z,6.98
2023-03-19T01:45:30.239Z,6.97
2023-03-19T01:46:30.254Z,7.02
2023-03-19T01:47:30.232Z,7.08
2023-03-19T01:48:30.236Z,7.16
2023-03-19T01:49:30.201Z,7.13
2023-03-19T01:50:30.193Z,7.19
2023-03-19T01:51:30.181Z,7.16
2023-03-19T01:52:30.174Z,7.13
2023-03-19T01:53:30.160Z,7.07
2023-03-19T01:54:30.138Z,7.04
2023-03-19T01:55:30.144Z,6.98
2023-03-19T01:56:30.123Z,6.95
2023-03-19T01:57:30.110Z,6.91
2023-03-19T01:58:30.101Z,7.05
2023-03-19T01:59:30.097Z,7.20
2023-03-19T02:00:30.115Z,7.26
2023-03-19T02:01:30.107Z,7.27
2023-03-19T02:02:30.090Z,7.26
2023-03-19T02:03:30.061Z,7.24
2023-03-19T02:04:30.085Z,7.26
2023-03-19T02:05:30.061Z,7.42
2023-03-19T02:06:30.015Z,7.60
2023-03-19T02:07:30.025Z,7.72
2023-03-19T02:08:29.995Z,7.67
2023-03-19T02:09:29.984Z,7.56
2023-03-19T02:10:29.978Z,7.47
2023-03-19T02:11:29.963Z,7.35
2023-03-19T02:12:29.979Z,7.26
2023-03-19T02:13:29.975Z,7.20
2023-03-19T02:14:29.934Z,7.16
2023-03-19T02:15:29.921Z,7.13
2023-03-19T02:16:29.968Z,7.15
2023-03-19T02:17:29.940Z,7.20
2023-03-19T02:18:29.897Z,7.22
2023-03-19T02:19:29.888Z,7.15
2023-03-19T02:20:29.870Z,7.08
2023-03-19T02:21:29.864Z,7.04
2023-03-19T02:22:29.866Z,6.97
2023-03-19T02:23:29.844Z,6.89
2023-03-19T02:24:29.828Z,6.83
2023-03-19T02:25:29.825Z,6.72
2023-03-19T02:26:29.833Z,6.61
2023-03-19T02:27:29.830Z,6.62
2023-03-19T02:28:29.793Z,6.63
2023-03-19T02:29:29.784Z,6.66
2023-03-19T02:30:29.768Z,6.72
2023-03-19T02:31:29.882Z,6.72
2023-03-19T02:32:29.853Z,6.79
2023-03-19T02:33:29.748Z,6.84
2023-03-19T02:34:29.733Z,6.89
2023-03-19T02:35:29.806Z,6.91
2023-03-19T02:36:29.713Z,6.99
2023-03-19T02:37:32.888Z,6.98
2023-03-19T02:38:29.688Z,6.97
2023-03-19T02:39:29.679Z,6.95
2023-03-19T02:40:29.690Z,6.94
2023-03-19T02:41:29.662Z,7.01
2023-03-19T02:42:29.649Z,7.04
2023-03-19T02:43:29.669Z,7.07
2023-03-19T02:44:29.642Z,7.13
2023-03-19T02:45:29.626Z,7.15
2023-03-19T02:46:29.669Z,7.19
2023-03-19T02:47:29.607Z,7.34
2023-03-19T02:48:29.593Z,7.42
2023-03-19T02:49:29.579Z,7.47
2023-03-19T02:50:29.569Z,7.50
2023-03-19T02:51:29.581Z,7.53
2023-03-19T02:52:29.543Z,7.60
2023-03-19T02:53:29.559Z,7.69
2023-03-19T02:54:29.531Z,7.66
2023-03-19T02:55:29.524Z,7.71
2023-03-19T02:56:29.507Z,7.72
2023-03-19T02:57:29.505Z,7.69
2023-03-19T02:58:29.503Z,7.77
2023-03-19T02:59:29.481Z,7.77
2023-03-19T03:00:29.494Z,7.78
2023-03-19T03:01:29.457Z,7.82
2023-03-19T03:02:29.496Z,7.85
2023-03-19T03:03:29.461Z,7.81
2023-03-19T03:04:29.426Z,7.78
2023-03-19T03:05:29.425Z,7.77
2023-03-19T03:06:29.409Z,7.78
2023-03-19T03:07:29.401Z,7.79
2023-03-19T03:08:29.406Z,7.78
2023-03-19T03:09:29.383Z,7.79
2023-03-19T03:10:29.364Z,7.85
2023-03-19T03:11:29.359Z,7.90
2023-03-19T03:12:29.350Z,7.90
2023-03-19T03:13:29.364Z,7.89
2023-03-19T03:14:29.326Z,7.85
2023-03-19T03:15:29.311Z,7.82
2023-03-19T03:16:29.355Z,7.79
2023-03-19T03:17:29.296Z,7.79
2023-03-19T03:18:29.747Z,7.79
2023-03-19T03:19:29.274Z,7.75
2023-03-19T03:20:29.279Z,7.74
2023-03-19T03:21:29.258Z,7.72
2023-03-19T03:22:29.247Z,7.67
2023-03-19T03:23:29.255Z,7.69
2023-03-19T03:24:29.227Z,7.72
2023-03-19T03:25:29.218Z,7.72
2023-03-19T03:26:29.233Z,7.77
2023-03-19T03:27:29.195Z,7.79
2023-03-19T03:28:29.194Z,7.78
2023-03-19T03:29:29.171Z,7.82
2023-03-19T03:30:29.189Z,7.79
2023-03-19T03:31:29.237Z,7.81
2023-03-19T03:32:29.148Z,7.81
2023-03-19T03:33:29.156Z,7.81
2023-03-19T03:34:29.128Z,7.81
2023-03-19T03:35:29.123Z,7.81
2023-03-19T03:36:29.143Z,7.79
2023-03-19T03:37:29.089Z,7.77
2023-03-19T03:38:29.083Z,7.69
2023-03-19T03:39:29.065Z,7.66
2023-03-19T03:40:29.062Z,7.62
2023-03-19T03:41:29.063Z,7.56
2023-03-19T03:42:29.041Z,7.52
2023-03-19T03:43:29.114Z,7.47
2023-03-19T03:44:29.022Z,7.42
2023-03-19T03:45:29.068Z,7.41
2023-03-19T03:46:29.001Z,7.41
2023-03-19T03:47:28.988Z,7.42
2023-03-19T03:48:29.008Z,7.37
2023-03-19T03:49:28.968Z,7.34
2023-03-19T03:50:28.956Z,7.32
2023-03-19T03:51:28.944Z,7.38
2023-03-19T03:52:28.935Z,7.35
2023-03-19T03:53:28.937Z,7.35
2023-03-19T03:54:28.914Z,7.31
2023-03-19T03:55:28.905Z,7.31
2023-03-19T03:56:28.894Z,7.31
2023-03-19T03:57:28.891Z,7.27
2023-03-19T03:58:28.891Z,7.24
2023-03-19T03:59:28.866Z,7.24
2023-03-19T04:00:28.865Z,7.22
2023-03-19T04:01:28.849Z,7.24
2023-03-19T04:02:28.882Z,7.24
2023-03-19T04:03:28.919Z,7.23
2023-03-19T04:04:28.819Z,7.22
2023-03-19T04:05:28.806Z,7.19
2023-03-19T04:06:28.794Z,7.22
2023-03-19T04:07:28.781Z,7.23
2023-03-19T04:08:28.788Z,7.27
2023-03-19T04:09:28.768Z,7.35
2023-03-19T04:10:28.752Z,7.44
2023-03-19T04:11:28.741Z,7.49
2023-03-19T04:12:28.732Z,7.58
2023-03-19T04:13:28.743Z,7.60
2023-03-19T04:14:28.710Z,7.58
2023-03-19T04:15:28.689Z,7.59
2023-03-19T04:16:28.783Z,7.58
2023-03-19T04:17:28.672Z,7.55
2023-03-19T04:18:28.681Z,7.53
2023-03-19T04:19:28.654Z,7.52
2023-03-19T04:20:28.645Z,7.49
2023-03-19T04:21:28.629Z,7.47
2023-03-19T04:22:28.623Z,7.44
2023-03-19T04:23:28.656Z,7.42
2023-03-19T04:24:28.602Z,7.41
2023-03-19T04:25:28.596Z,7.40
2023-03-19T04:26:28.584Z,7.41
2023-03-19T04:27:28.567Z,7.41
2023-03-19T04:28:28.577Z,7.40
2023-03-19T04:29:28.545Z,7.40
2023-03-19T04:30:28.596Z,7.40
2023-03-19T04:31:28.620Z,7.38
2023-03-19T04:32:28.522Z,7.42
2023-03-19T04:33:28.529Z,7.42
2023-03-19T04:34:28.494Z,7.41
2023-03-19T04:35:28.515Z,7.41
2023-03-19T04:36:28.488Z,7.40
2023-03-19T04:37:28.460Z,7.35
2023-03-19T04:38:28.454Z,7.31
2023-03-19T04:39:28.437Z,7.29
2023-03-19T04:40:28.432Z,7.27
2023-03-19T04:41:28.479Z,7.27
2023-03-19T04:42:28.415Z,7.24
2023-03-19T04:43:28.472Z,7.22
2023-03-19T04:44:28.393Z,7.20
2023-03-19T04:45:28.373Z,7.24
2023-03-19T04:46:28.514Z,7.29
2023-03-19T04:47:28.380Z,7.31
2023-03-19T04:48:28.370Z,7.31
2023-03-19T04:49:28.333Z,7.32
2023-03-19T04:50:28.327Z,7.34
2023-03-19T04:51:28.320Z,7.34
2023-03-19T04:52:28.306Z,7.32
2023-03-19T04:53:28.313Z,7.34
2023-03-19T04:54:28.284Z,7.32
2023-03-19T04:55:28.265Z,7.31
2023-03-19T04:56:28.278Z,7.32
2023-03-19T04:57:28.263Z,7.31
2023-03-19T04:58:28.193Z,7.29
2023-03-19T04:59:28.185Z,7.31
2023-03-19T05:00:28.188Z,7.32
2023-03-19T05:01:28.311Z,7.32
2023-03-19T05:02:28.151Z,7.34
2023-03-19T05:03:28.211Z,7.34
2023-03-19T05:04:28.140Z,7.40
2023-03-19T05:05:28.137Z,7.52
2023-03-19T05:06:28.129Z,7.58
2023-03-19T05:07:28.096Z,7.60
2023-03-19T05:08:28.103Z,7.58
2023-03-19T05:09:28.074Z,7.56
2023-03-19T05:10:28.071Z,7.59
2023-03-19T05:11:28.053Z,7.59
2023-03-19T05:12:28.049Z,7.63
2023-03-19T05:13:28.061Z,7.66
2023-03-19T05:14:28.032Z,7.63
2023-03-19T05:15:28.019Z,7.71
2023-03-19T05:16:28.023Z,7.71
2023-03-19T05:17:28.002Z,7.67
2023-03-19T05:18:28.005Z,7.69
2023-03-19T05:19:27.977Z,7.67
2023-03-19T05:20:27.970Z,7.66
2023-03-19T05:21:27.959Z,7.62
2023-03-19T05:22:27.949Z,7.63
2023-03-19T05:23:27.969Z,7.63
2023-03-19T05:24:27.929Z,7.69
2023-03-19T05:25:27.916Z,7.75
2023-03-19T05:26:27.909Z,7.75
2023-03-19T05:27:27.892Z,7.74
2023-03-19T05:28:27.903Z,7.75
2023-03-19T05:29:27.878Z,7.77
2023-03-19T05:30:27.866Z,7.77
2023-03-19T05:31:27.884Z,7.79
2023-03-19T05:32:27.893Z,7.78
2023-03-19T05:33:27.847Z,7.78
2023-03-19T05:34:27.825Z,7.79
2023-03-19T05:35:27.848Z,7.82
2023-03-19T05:36:27.807Z,7.82
2023-03-19T05:37:27.808Z,7.81
2023-03-19T05:38:27.783Z,7.77
2023-03-19T05:39:27.770Z,7.82
2023-03-19T05:40:27.762Z,7.85
2023-03-19T05:41:27.752Z,7.85
2023-03-19T05:42:27.768Z,7.84
2023-03-19T05:43:27.742Z,7.82
2023-03-19T05:44:27.732Z,7.81
2023-03-19T05:45:27.708Z,7.81
2023-03-19T05:46:27.720Z,7.81
2023-03-19T05:47:27.690Z,7.78
2023-03-19T05:48:27.700Z,7.75
2023-03-19T05:49:27.676Z,7.74
2023-03-19T05:50:27.664Z,7.74
2023-03-19T05:51:27.649Z,7.69
2023-03-19T05:52:27.640Z,7.67
2023-03-19T05:53:27.647Z,7.71
2023-03-19T05:54:27.632Z,7.71
2023-03-19T05:55:27.601Z,7.72
2023-03-19T05:56:27.606Z,7.66
2023-03-19T05:57:27.589Z,7.66
2023-03-19T05:58:27.591Z,7.66
2023-03-19T05:59:27.564Z,7.69
2023-03-19T06:00:27.559Z,7.67
2023-03-19T06:01:33.614Z,7.67
2023-03-19T06:02:29.234Z,7.72
2023-03-19T06:03:27.532Z,7.74
2023-03-19T06:04:27.628Z,7.81
2023-03-19T06:05:27.506Z,7.79
2023-03-19T06:06:27.502Z,7.78
2023-03-19T06:07:27.507Z,7.82
2023-03-19T06:08:27.478Z,7.84
2023-03-19T06:09:27.465Z,7.84
2023-03-19T06:10:27.454Z,7.82
2023-03-19T06:11:27.448Z,7.74
2023-03-19T06:12:27.465Z,7.74
2023-03-19T06:13:27.441Z,7.77
2023-03-19T06:14:27.417Z,7.79
2023-03-19T06:15:27.401Z,7.84
2023-03-19T06:16:27.421Z,7.84
2023-03-19T06:17:27.399Z,7.84
2023-03-19T06:18:27.382Z,7.81
2023-03-19T06:19:27.361Z,7.84
2023-03-19T06:20:27.366Z,7.84
2023-03-19T06:21:27.341Z,7.85
2023-03-19T06:22:27.354Z,7.92
2023-03-19T06:23:27.339Z,7.94
2023-03-19T06:24:27.316Z,8.00
2023-03-19T06:25:27.301Z,8.04
2023-03-19T06:26:27.301Z,8.15
2023-03-19T06:27:27.280Z,8.25
2023-03-19T06:28:27.301Z,8.28
2023-03-19T06:29:27.260Z,8.33
2023-03-19T06:30:27.254Z,8.36
2023-03-19T06:31:27.266Z,8.39
2023-03-19T06:32:27.246Z,8.40
2023-03-19T06:33:27.234Z,8.36
2023-03-19T06:34:27.218Z,8.39
2023-03-19T06:35:27.267Z,8.51
2023-03-19T06:36:27.190Z,8.79
2023-03-19T06:37:27.178Z,9.10
2023-03-19T06:38:27.192Z,9.27
2023-03-19T06:39:27.158Z,9.10
2023-03-19T06:40:27.154Z,8.97
2023-03-19T06:41:27.135Z,8.83
2023-03-19T06:42:27.189Z,8.62
2023-03-19T06:43:27.109Z,8.48
2023-03-19T06:44:27.122Z,8.42
2023-03-19T06:45:27.091Z,8.36
2023-03-19T06:46:27.080Z,8.30
2023-03-19T06:47:27.084Z,8.32
2023-03-19T06:48:27.064Z,8.33
2023-03-19T06:49:27.048Z,8.40
2023-03-19T06:50:27.041Z,8.48
2023-03-19T06:51:27.028Z,8.60
2023-03-19T06:52:27.042Z,8.71
2023-03-19T06:53:27.000Z,8.78
2023-03-19T06:54:26.995Z,8.87
2023-03-19T06:55:26.994Z,8.94
2023-03-19T06:56:26.977Z,9.12
2023-03-19T06:57:26.982Z,9.32
2023-03-19T06:58:26.960Z,9.64
2023-03-19T06:59:26.958Z,10.01
2023-03-19T07:00:26.939Z,10.32
2023-03-19T07:01:27.002Z,11.06
2023-03-19T07:02:26.914Z,11.89
2023-03-19T07:03:26.901Z,12.49
2023-03-19T07:04:27.051Z,12.87
2023-03-19T07:05:26.875Z,13.12
2023-03-19T07:06:26.868Z,12.57
2023-03-19T07:07:26.865Z,12.30
2023-03-19T07:08:26.848Z,13.02
2023-03-19T07:09:26.830Z,12.42
2023-03-19T07:10:26.828Z,12.06
2023-03-19T07:11:26.811Z,11.53
2023-03-19T07:12:26.843Z,11.21
2023-03-19T07:13:26.791Z,10.86
2023-03-19T07:14:26.800Z,10.68
2023-03-19T07:15:26.766Z,10.40
2023-03-19T07:16:26.769Z,10.28
2023-03-19T07:17:26.749Z,10.12
2023-03-19T07:18:26.740Z,9.96
2023-03-19T07:19:26.746Z,9.86
2023-03-19T07:20:26.717Z,9.78
2023-03-19T07:21:26.705Z,9.71
2023-03-19T07:22:26.706Z,9.67
2023-03-19T07:23:26.685Z,9.68
2023-03-19T07:24:26.726Z,9.82
2023-03-19T07:25:26.666Z,9.86
2023-03-19T07:26:26.659Z,9.88
2023-03-19T07:27:26.642Z,9.93
2023-03-19T07:28:26.632Z,10.03
2023-03-19T07:29:26.650Z,10.15
2023-03-19T07:30:26.621Z,10.30
2023-03-19T07:31:26.635Z,10.43
2023-03-19T07:32:26.641Z,10.59
2023-03-19T07:33:26.578Z,10.74
2023-03-19T07:34:26.580Z,10.91
2023-03-19T07:35:26.572Z,11.09
2023-03-19T07:36:26.543Z,11.17
2023-03-19T07:37:26.541Z,11.27
2023-03-19T07:38:26.521Z,11.31
2023-03-19T07:39:26.537Z,11.35
2023-03-19T07:40:26.504Z,11.44
2023-03-19T07:41:26.498Z,11.53
2023-03-19T07:42:26.490Z,11.65
2023-03-19T07:43:26.475Z,11.77
2023-03-19T07:44:26.492Z,11.87
2023-03-19T07:45:26.453Z,12.04
2023-03-19T07:46:26.435Z,12.26
2023-03-19T07:47:29.380Z,12.54
2023-03-19T07:48:26.419Z,14.06
2023-03-19T07:49:26.434Z,14.46
2023-03-19T07:50:26.391Z,14.49
2023-03-19T07:51:26.394Z,14.37
2023-03-19T07:52:26.382Z,14.12
2023-03-19T07:53:26.366Z,14.32
2023-03-19T07:54:26.377Z,14.20
2023-03-19T07:55:26.343Z,13.98
2023-03-19T07:56:26.432Z,13.79
2023-03-19T07:57:26.328Z,13.40
2023-03-19T07:58:26.319Z,13.11
2023-03-19T07:59:26.331Z,12.97
2023-03-19T08:00:26.289Z,12.84
2023-03-19T08:01:26.283Z,12.71
2023-03-19T08:02:26.384Z,12.64
2023-03-19T08:03:26.260Z,12.56
2023-03-19T08:04:26.327Z,12.54
2023-03-19T08:05:26.240Z,12.49
2023-03-19T08:06:26.228Z,12.51
2023-03-19T08:07:26.216Z,12.60
2023-03-19T08:08:26.230Z,12.46
2023-03-19T08:09:26.326Z,12.48
2023-03-19T08:10:26.177Z,12.54
2023-03-19T08:11:26.199Z,12.62
2023-03-19T08:12:26.168Z,12.66
2023-03-19T08:13:26.180Z,12.66
2023-03-19T08:14:26.153Z,12.77
2023-03-19T08:15:26.131Z,12.78
2023-03-19T08:16:26.175Z,12.92
2023-03-19T08:17:26.112Z,12.99
2023-03-19T08:18:26.103Z,12.93
2023-03-19T08:19:26.100Z,12.95
2023-03-19T08:20:26.110Z,13.06
2023-03-19T08:21:26.082Z,13.04
2023-03-19T08:22:26.052Z,13.03
2023-03-19T08:23:26.042Z,13.11
2023-03-19T08:24:26.054Z,13.33
2023-03-19T08:25:26.034Z,13.49
2023-03-19T08:26:26.012Z,13.38
2023-03-19T08:27:26.047Z,13.38
2023-03-19T08:28:26.002Z,13.32
2023-03-19T08:29:25.993Z,13.38
2023-03-19T08:30:25.970Z,13.44
2023-03-19T08:31:26.014Z,13.47
2023-03-19T08:32:25.953Z,13.37
2023-03-19T08:33:25.956Z,13.47
2023-03-19T08:34:25.949Z,13.65
2023-03-19T08:35:25.918Z,13.83
2023-03-19T08:36:25.901Z,14.24
2023-03-19T08:37:25.901Z,14.50
2023-03-19T08:38:25.884Z,14.81
2023-03-19T08:39:25.906Z,14.60
2023-03-19T08:40:25.860Z,14.68
2023-03-19T08:41:25.850Z,14.93
2023-03-19T08:42:25.838Z,14.64
2023-03-19T08:43:25.828Z,14.52
2023-03-19T08:44:25.825Z,14.57
2023-03-19T08:45:25.806Z,15.36
2023-03-19T08:46:25.929Z,16.33
2023-03-19T08:47:25.788Z,16.95
2023-03-19T08:48:25.958Z,17.38
2023-03-19T08:49:25.788Z,17.57
2023-03-19T08:50:25.813Z,18.15
2023-03-19T08:51:25.742Z,18.22
2023-03-19T08:52:25.728Z,17.59
2023-03-19T08:53:25.718Z,17.51
2023-03-19T08:54:25.717Z,17.73
2023-03-19T08:55:25.721Z,18.29
2023-03-19T08:56:25.683Z,18.97
2023-03-19T08:57:25.679Z,18.95
2023-03-19T08:58:25.665Z,19.20
2023-03-19T08:59:25.674Z,18.82
2023-03-19T09:00:25.682Z,18.36
2023-03-19T09:01:25.687Z,18.47
2023-03-19T09:02:25.618Z,18.09
2023-03-19T09:03:25.627Z,18.34
2023-03-19T09:04:25.636Z,18.58
2023-03-19T09:05:27.102Z,19.01
2023-03-19T09:06:25.572Z,19.15
2023-03-19T09:07:25.577Z,19.31
2023-03-19T09:08:25.553Z,19.75
2023-03-19T09:09:25.583Z,19.70
2023-03-19T09:10:25.597Z,19.76
2023-03-19T09:11:25.597Z,20.00
2023-03-19T09:12:25.510Z,20.28
2023-03-19T09:13:25.568Z,20.21
2023-03-19T09:14:25.655Z,19.39
2023-03-19T09:15:25.487Z,19.51
2023-03-19T09:16:25.525Z,18.62
2023-03-19T09:17:25.466Z,18.28
2023-03-19T09:18:25.494Z,18.91
2023-03-19T09:19:25.516Z,19.95
2023-03-19T09:20:25.446Z,20.56
2023-03-19T09:21:25.427Z,20.65
2023-03-19T09:22:25.418Z,20.13
2023-03-19T09:23:25.418Z,19.97
2023-03-19T09:24:25.422Z,20.21
2023-03-19T09:25:25.389Z,20.87
2023-03-19T09:26:25.373Z,21.16
2023-03-19T09:27:25.369Z,21.08
2023-03-19T09:28:25.375Z,20.77
2023-03-19T09:29:25.368Z,20.77
2023-03-19T09:30:25.337Z,20.90
2023-03-19T09:31:27.270Z,20.80
2023-03-19T09:32:25.321Z,21.16
2023-03-19T09:33:25.299Z,20.77
2023-03-19T09:34:25.312Z,19.53
2023-03-19T09:35:25.278Z,18.39
2023-03-19T09:36:25.292Z,17.67
2023-03-19T09:37:25.263Z,18.47
2023-03-19T09:38:25.244Z,19.14
2023-03-19T09:39:25.324Z,19.32
2023-03-19T09:40:25.225Z,19.29
2023-03-19T09:41:25.308Z,20.46
2023-03-19T09:42:25.216Z,21.36
2023-03-19T09:43:25.200Z,20.86
2023-03-19T09:44:25.176Z,21.24
2023-03-19T09:45:25.197Z,21.38
2023-03-19T09:46:25.227Z,21.19
2023-03-19T09:47:25.159Z,20.76
2023-03-19T09:48:25.144Z,21.06
2023-03-19T09:49:25.133Z,20.81
2023-03-19T09:50:25.135Z,19.98
2023-03-19T09:51:25.164Z,20.05
2023-03-19T09:52:25.095Z,20.42
2023-03-19T09:53:25.104Z,21.34
2023-03-19T09:54:25.094Z,22.54
2023-03-19T09:55:25.110Z,23.08
2023-03-19T09:56:25.059Z,21.75
2023-03-19T09:57:25.084Z,20.71
2023-03-19T09:58:25.033Z,20.10
2023-03-19T09:59:25.063Z,19.11
2023-03-19T10:00:25.047Z,20.13
2023-03-19T10:01:25.061Z,20.99
2023-03-19T10:02:24.999Z,21.20
2023-03-19T10:03:24.990Z,21.51
2023-03-19T10:04:25.094Z,22.14
2023-03-19T10:05:24.979Z,22.57
2023-03-19T10:06:24.964Z,22.59
2023-03-19T10:07:24.956Z,23.32
2023-03-19T10:08:24.940Z,23.89
2023-03-19T10:09:24.979Z,23.55
2023-03-19T10:10:24.931Z,23.38
2023-03-19T10:11:24.908Z,23.27
2023-03-19T10:12:24.937Z,23.22
2023-03-19T10:13:24.881Z,23.38
2023-03-19T10:14:24.874Z,22.75
2023-03-19T10:15:24.926Z,22.86
2023-03-19T10:16:24.966Z,23.19
2023-03-19T10:17:24.891Z,22.80
2023-03-19T10:18:24.827Z,22.19
2023-03-19T10:19:24.845Z,22.31
2023-03-19T10:20:24.841Z,22.44
2023-03-19T10:21:24.802Z,22.38
2023-03-19T10:22:24.790Z,22.37
2023-03-19T10:23:24.809Z,21.95
2023-03-19T10:24:24.780Z,21.63
2023-03-19T10:25:24.813Z,21.35
2023-03-19T10:26:24.749Z,22.10
2023-03-19T10:27:24.753Z,22.01
2023-03-19T10:28:24.756Z,21.59
2023-03-19T10:29:24.766Z,21.48
2023-03-19T10:30:24.728Z,21.13
2023-03-19T10:31:24.727Z,20.80
2023-03-19T10:32:24.702Z,20.86
2023-03-19T10:33:24.683Z,20.43
2023-03-19T10:34:24.671Z,20.59
2023-03-19T10:35:24.683Z,20.12
2023-03-19T10:36:24.702Z,20.33
2023-03-19T10:37:24.650Z,19.76
2023-03-19T10:38:24.643Z,20.21
2023-03-19T10:39:24.639Z,20.69
2023-03-19T10:40:24.632Z,20.35
2023-03-19T10:41:24.622Z,19.40
2023-03-19T10:42:24.611Z,18.84
2023-03-19T10:43:24.578Z,18.40
2023-03-19T10:44:24.570Z,18.18
2023-03-19T10:45:24.662Z,17.85
2023-03-19T10:46:24.636Z,17.50
2023-03-19T10:47:24.548Z,16.95
2023-03-19T10:48:25.398Z,16.70
2023-03-19T10:49:24.522Z,16.52
2023-03-19T10:50:24.644Z,16.62
2023-03-19T10:51:24.532Z,16.50
2023-03-19T10:52:24.509Z,16.41
2023-03-19T10:53:24.484Z,16.12
2023-03-19T10:54:24.490Z,15.88
2023-03-19T10:55:24.472Z,15.72
2023-03-19T10:56:24.450Z,15.68
2023-03-19T10:57:24.460Z,15.75
2023-03-19T10:58:24.424Z,15.76
2023-03-19T10:59:24.414Z,15.70
2023-03-19T11:00:24.480Z,15.88
2023-03-19T11:01:24.432Z,16.01
2023-03-19T11:02:24.417Z,16.75
2023-03-19T11:03:24.430Z,17.82
2023-03-19T11:04:24.380Z,18.19
2023-03-19T11:05:24.392Z,18.15
2023-03-19T11:06:24.338Z,17.78
2023-03-19T11:07:24.325Z,17.85
2023-03-19T11:08:35.156Z,17.64
2023-03-19T11:09:24.323Z,17.54
2023-03-19T11:10:24.325Z,17.69
2023-03-19T11:11:24.286Z,18.49
2023-03-19T11:12:24.272Z,19.08
2023-03-19T11:13:24.256Z,18.87
2023-03-19T11:14:24.242Z,19.65
2023-03-19T11:15:24.258Z,20.91
2023-03-19T11:16:24.271Z,21.63
2023-03-19T11:17:24.221Z,21.42
2023-03-19T11:18:24.226Z,20.34
2023-03-19T11:19:24.193Z,19.46
2023-03-19T11:20:24.199Z,19.06
2023-03-19T11:21:24.192Z,18.67
2023-03-19T11:22:24.158Z,18.25
2023-03-19T11:23:24.150Z,17.79
2023-03-19T11:24:24.158Z,17.62
2023-03-19T11:25:24.147Z,17.48
2023-03-19T11:26:24.133Z,17.22
2023-03-19T11:27:24.146Z,17.18
2023-03-19T11:28:26.149Z,17.03
2023-03-19T11:29:24.088Z,16.83
2023-03-19T11:30:24.147Z,16.74
2023-03-19T11:31:24.176Z,16.65
2023-03-19T11:32:24.088Z,16.53
2023-03-19T11:33:24.168Z,16.44
2023-03-19T11:34:24.039Z,16.20
2023-03-19T11:35:24.040Z,16.06
2023-03-19T11:36:24.063Z,16.22
2023-03-19T11:37:24.007Z,16.34
2023-03-19T11:38:23.992Z,16.44
2023-03-19T11:39:23.996Z,16.40
2023-03-19T11:40:25.265Z,16.31
2023-03-19T11:41:23.986Z,16.44
2023-03-19T11:42:23.965Z,16.62
2023-03-19T11:43:23.945Z,16.60
2023-03-19T11:44:23.938Z,18.25
2023-03-19T11:45:24.069Z,20.51
2023-03-19T11:46:24.003Z,21.83
2023-03-19T11:47:27.451Z,22.37
2023-03-19T11:48:23.964Z,22.67
2023-03-19T11:49:23.894Z,22.99
2023-03-19T11:50:23.895Z,22.53
2023-03-19T11:51:23.856Z,21.57
2023-03-19T11:52:23.974Z,20.98
2023-03-19T11:53:23.837Z,20.93
2023-03-19T11:54:23.829Z,20.91
2023-03-19T11:55:23.853Z,20.35
2023-03-19T11:56:23.847Z,20.02
2023-03-19T11:57:23.791Z,19.60
2023-03-19T11:58:23.785Z,19.87
2023-03-19T11:59:23.787Z,19.66
2023-03-19T12:00:23.766Z,19.25
2023-03-19T12:01:23.785Z,19.02
2023-03-19T12:02:23.772Z,18.25
2023-03-19T12:03:23.773Z,18.13
2023-03-19T12:04:23.749Z,18.02
2023-03-19T12:05:23.726Z,17.92
2023-03-19T12:06:23.739Z,17.73
2023-03-19T12:07:23.715Z,17.69
2023-03-19T12:08:23.689Z,17.76
2023-03-19T12:09:23.671Z,17.73
2023-03-19T12:10:23.907Z,17.55
2023-03-19T12:11:23.654Z,17.50
2023-03-19T12:12:26.377Z,17.63
2023-03-19T12:13:23.642Z,17.63
2023-03-19T12:14:23.634Z,17.64
2023-03-19T12:15:23.618Z,17.46
2023-03-19T12:16:23.656Z,17.00
2023-03-19T12:17:23.587Z,16.88
2023-03-19T12:18:23.582Z,16.96
2023-03-19T12:19:23.597Z,17.03
2023-03-19T12:20:23.579Z,17.07
2023-03-19T12:21:23.574Z,16.93
2023-03-19T12:22:23.553Z,16.73
2023-03-19T12:23:23.519Z,16.60
2023-03-19T12:24:23.528Z,16.59
2023-03-19T12:25:23.537Z,16.62
2023-03-19T12:26:23.525Z,16.70
2023-03-19T12:27:23.478Z,16.59
2023-03-19T12:28:23.477Z,16.35
2023-03-19T12:29:23.466Z,16.22
2023-03-19T12:30:23.479Z,16.16
2023-03-19T12:31:23.539Z,16.20
2023-03-19T12:32:23.432Z,16.15
2023-03-19T12:33:23.412Z,16.25
2023-03-19T12:34:23.445Z,16.12
2023-03-19T12:35:23.411Z,15.99
2023-03-19T12:36:23.392Z,15.74
2023-03-19T12:37:23.393Z,15.67
2023-03-19T12:38:23.379Z,15.74
2023-03-19T12:39:23.347Z,15.85
2023-03-19T12:40:23.367Z,15.97
2023-03-19T12:41:23.367Z,16.12
2023-03-19T12:42:23.328Z,16.16
2023-03-19T12:43:23.310Z,16.26
2023-03-19T12:44:23.302Z,16.38
2023-03-19T12:45:23.305Z,16.31
2023-03-19T12:46:23.309Z,16.14
2023-03-19T12:47:23.293Z,16.16
2023-03-19T12:48:23.256Z,16.22
2023-03-19T12:49:23.253Z,16.23
2023-03-19T12:50:23.250Z,16.15
2023-03-19T12:51:23.226Z,16.07
2023-03-19T12:52:23.239Z,16.12
2023-03-19T12:53:23.240Z,16.22
2023-03-19T12:54:23.220Z,16.14
2023-03-19T12:55:23.185Z,16.15
2023-03-19T12:56:23.199Z,16.14
2023-03-19T12:57:23.179Z,16.03
2023-03-19T12:58:23.186Z,16.01
2023-03-19T12:59:23.163Z,16.00
2023-03-19T13:00:23.120Z,15.96
2023-03-19T13:01:23.149Z,15.92
2023-03-19T13:02:23.308Z,16.06
2023-03-19T13:03:23.090Z,16.12
2023-03-19T13:04:23.182Z,15.93
2023-03-19T13:05:23.126Z,15.89
2023-03-19T13:06:23.078Z,16.11